Time;durP1;ratioP1;P1;durP2;ratioP2;P2;SDS_P1;SDS_P2;PMS_P1;PMS_P2;Temp;Humidity;BMP_temperature;BMP_pressure;BME280_temperature;BME280_humidity;BME280_pressure;Samples;Min_cycle;Max_cycle;Signal;HPM_P1;HPM_P2
2022/08/12 00:44:57;;;;;;;6.73;4.10;;;;;;;;;;5047767;28;20041;-64
2022/08/12 00:47:24;;;;;;;10.47;5.67;;;;;;;;;;5047290;28;20037;-64
2022/08/12 00:49:50;;;;;;;6.80;4.07;;;;;;;;;;5047988;28;20470;-64
2022/08/12 00:52:18;;;;;;;7.50;4.53;;;;;;;;;;5048217;28;20122;-64
2022/08/12 00:54:44;;;;;;;8.53;4.50;;;;;;;;;;5047462;28;20045;-64
2022/08/12 00:57:15;;;;;;;9.17;5.00;;;;;;;;;;5047710;28;20048;-64
2022/08/12 00:59:45;;;;;;;10.60;4.70;;;;;;;;;;5046999;28;20068;-64
2022/08/12 01:02:14;;;;;;;7.80;5.10;;;;;;;;;;5047401;28;20081;-64
2022/08/12 01:12:59;;;;;;;7.47;4.73;;;;;;;;;;5047702;28;20049;-64
2022/08/12 01:15:27;;;;;;;7.80;4.93;;;;;;;;;;5048287;28;20045;-64
2022/08/12 01:17:53;;;;;;;8.80;5.27;;;;;;;;;;5046993;28;20049;-64
2022/08/12 01:20:37;;;;;;;8.97;5.07;;;;;;;;;;5047443;28;20055;-64
2022/08/12 01:23:22;;;;;;;9.83;5.30;;;;;;;;;;5047589;28;20040;-64
2022/08/12 01:25:50;;;;;;;9.47;5.03;;;;;;;;;;5047378;28;20044;-64
2022/08/12 01:28:17;;;;;;;8.50;5.67;;;;;;;;;;5047242;28;20060;-64
2022/08/12 01:30:44;;;;;;;7.43;5.43;;;;;;;;;;5047137;28;20041;-64
2022/08/12 01:33:14;;;;;;;11.70;5.70;;;;;;;;;;5046912;28;20136;-64
2022/08/12 01:35:44;;;;;;;8.13;5.90;;;;;;;;;;5039953;28;20044;-64
2022/08/12 01:38:10;;;;;;;9.93;6.83;;;;;;;;;;5046927;28;20048;-64
2022/08/12 01:40:37;;;;;;;8.07;6.00;;;;;;;;;;5047285;28;20391;-64
2022/08/12 01:43:08;;;;;;;6.87;5.70;;;;;;;;;;5050423;28;20041;-64
2022/08/12 01:45:35;;;;;;;9.83;5.50;;;;;;;;;;5050896;28;20040;-64
2022/08/12 01:48:04;;;;;;;8.33;6.10;;;;;;;;;;5051009;28;20037;-64
2022/08/12 01:50:49;;;;;;;7.53;5.80;;;;;;;;;;5050866;28;20087;-64
2022/08/12 01:53:19;;;;;;;7.20;5.50;;;;;;;;;;5050535;28;20048;-64
2022/08/12 01:55:46;;;;;;;10.80;6.57;;;;;;;;;;5049140;28;20045;-64
2022/08/12 01:58:12;;;;;;;8.20;6.27;;;;;;;;;;5050749;28;20511;-64
2022/08/12 02:00:47;;;;;;;8.00;6.23;;;;;;;;;;5051080;28;20467;-64
2022/08/12 02:03:23;;;;;;;11.47;6.73;;;;;;;;;;5049997;28;20186;-64
2022/08/12 02:11:50;;;;;;;10.73;5.87;;;;;;;;;;5046381;28;20577;-64
2022/08/12 02:14:35;;;;;;;8.20;6.23;;;;;;;;;;5045242;28;20411;-64
2022/08/12 02:17:04;;;;;;;8.90;6.37;;;;;;;;;;5050438;28;20415;-64
2022/08/12 02:19:36;;;;;;;8.67;6.53;;;;;;;;;;5050573;28;20442;-64
2022/08/12 02:22:02;;;;;;;11.73;6.80;;;;;;;;;;5050175;28;20127;-64
2022/08/12 02:24:30;;;;;;;8.50;6.93;;;;;;;;;;5050360;28;20114;-64
2022/08/12 02:26:57;;;;;;;12.87;6.93;;;;;;;;;;5049930;28;20156;-64
2022/08/12 02:29:23;;;;;;;12.87;7.67;;;;;;;;;;5049769;28;20056;-64
2022/08/12 02:31:51;;;;;;;12.27;7.70;;;;;;;;;;5050178;28;20033;-64
2022/08/12 02:34:18;;;;;;;11.20;7.90;;;;;;;;;;5049411;28;20511;-64
2022/08/12 02:36:45;;;;;;;11.73;7.30;;;;;;;;;;5049659;28;20056;-64
2022/08/12 02:39:15;;;;;;;8.87;6.73;;;;;;;;;;5050245;28;20041;-64
2022/08/12 02:41:46;;;;;;;10.83;7.37;;;;;;;;;;5050098;28;20064;-64
2022/08/12 02:44:15;;;;;;;11.60;6.97;;;;;;;;;;5049572;28;20084;-64
2022/08/12 02:46:47;;;;;;;10.60;7.10;;;;;;;;;;5049471;28;20059;-64
2022/08/12 02:49:16;;;;;;;10.25;7.03;;;;;;;;;;5049811;28;20411;-64
2022/08/12 02:51:43;;;;;;;9.70;6.40;;;;;;;;;;5049327;28;20049;-64
2022/08/12 02:54:09;;;;;;;10.13;6.57;;;;;;;;;;5049876;28;20048;-64
2022/08/12 02:56:39;;;;;;;12.73;8.13;;;;;;;;;;5049615;28;20049;-64
2022/08/12 02:59:09;;;;;;;10.73;6.73;;;;;;;;;;5045474;28;20052;-64
2022/08/12 03:01:37;;;;;;;10.33;7.90;;;;;;;;;;5049527;28;20076;-64
2022/08/12 03:04:05;;;;;;;11.97;7.40;;;;;;;;;;5049124;28;20048;-64
2022/08/12 03:06:37;;;;;;;10.67;7.33;;;;;;;;;;5050010;28;20053;-64
2022/08/12 03:09:04;;;;;;;11.40;8.17;;;;;;;;;;5049471;28;20060;-64
2022/08/12 03:11:40;;;;;;;12.83;8.23;;;;;;;;;;5049039;28;20506;-64
2022/08/12 03:14:10;;;;;;;15.33;9.97;;;;;;;;;;5049232;28;20487;-64
2022/08/12 03:16:38;;;;;;;11.97;9.03;;;;;;;;;;5049268;28;20458;-64
2022/08/12 03:19:05;;;;;;;13.30;8.97;;;;;;;;;;5048230;28;20049;-64
2022/08/12 03:21:33;;;;;;;13.47;9.50;;;;;;;;;;5049248;28;20495;-64
2022/08/12 03:24:00;;;;;;;14.57;9.97;;;;;;;;;;5049125;28;20045;-64
2022/08/12 03:26:27;;;;;;;13.93;9.60;;;;;;;;;;5049343;28;20044;-64
2022/08/12 03:28:55;;;;;;;14.53;10.53;;;;;;;;;;5049164;28;20048;-65
2022/08/12 03:31:23;;;;;;;14.97;9.73;;;;;;;;;;5048234;28;20091;-64
2022/08/12 03:33:49;;;;;;;11.30;9.57;;;;;;;;;;5049058;28;20396;-64
2022/08/12 03:36:19;;;;;;;14.63;9.93;;;;;;;;;;5048458;28;21096;-64
2022/08/12 03:41:34;;;;;;;11.37;8.60;;;;;;;;;;5041891;28;20385;-64
2022/08/12 04:00:35;;;;;;;20.23;11.03;;;;;;;;;;5047188;28;20484;-64
2022/08/12 04:03:01;;;;;;;15.27;11.33;;;;;;;;;;5047968;28;20033;-64
2022/08/12 04:05:31;;;;;;;14.80;10.60;;;;;;;;;;5047123;28;20057;-64
2022/08/12 04:07:58;;;;;;;17.03;11.03;;;;;;;;;;5047679;28;20129;-64
2022/08/12 04:13:18;;;;;;;18.60;12.67;;;;;;;;;;5047635;28;20041;-65
2022/08/12 04:15:45;;;;;;;21.10;12.90;;;;;;;;;;5040590;28;20049;-64
2022/08/12 04:18:14;;;;;;;19.37;12.77;;;;;;;;;;5047027;28;20437;-64
2022/08/12 04:20:41;;;;;;;16.30;12.27;;;;;;;;;;5047399;28;20040;-64
2022/08/12 04:23:11;;;;;;;16.83;12.60;;;;;;;;;;5046229;28;20088;-64
2022/08/12 04:25:38;;;;;;;16.67;11.63;;;;;;;;;;5045720;28;20063;-64
2022/08/12 04:28:06;;;;;;;18.20;12.10;;;;;;;;;;5047032;28;20399;-64
2022/08/12 04:30:32;;;;;;;17.37;12.63;;;;;;;;;;5047059;28;20132;-64
2022/08/12 04:32:58;;;;;;;21.63;13.13;;;;;;;;;;5047005;28;20037;-64
2022/08/12 04:35:24;;;;;;;16.13;12.07;;;;;;;;;;5047098;28;20542;-64
2022/08/12 04:37:54;;;;;;;16.13;12.77;;;;;;;;;;5047130;28;20487;-64
2022/08/12 04:40:24;;;;;;;22.53;13.63;;;;;;;;;;5046481;28;20041;-64
2022/08/12 04:42:50;;;;;;;15.87;12.37;;;;;;;;;;5046561;28;20107;-64
2022/08/12 04:45:19;;;;;;;16.40;12.73;;;;;;;;;;5046991;28;20052;-64
2022/08/12 04:47:46;;;;;;;18.17;13.13;;;;;;;;;;5047244;28;20041;-64
2022/08/12 04:50:16;;;;;;;18.33;13.43;;;;;;;;;;5046655;28;20402;-64
2022/08/12 04:52:43;;;;;;;17.93;13.43;;;;;;;;;;5046610;28;20118;-64
2022/08/12 04:55:09;;;;;;;19.10;13.27;;;;;;;;;;5046891;28;20461;-64
2022/08/12 04:57:36;;;;;;;23.07;13.60;;;;;;;;;;5046641;28;20041;-64
2022/08/12 05:00:06;;;;;;;18.33;13.00;;;;;;;;;;5046980;28;20048;-64
2022/08/12 05:02:32;;;;;;;22.07;13.53;;;;;;;;;;5046433;28;20045;-64
2022/08/12 05:05:00;;;;;;;16.27;12.60;;;;;;;;;;5046752;28;20048;-64
2022/08/12 05:07:26;;;;;;;17.07;12.73;;;;;;;;;;5046887;28;20143;-64
2022/08/12 05:09:52;;;;;;;19.90;13.43;;;;;;;;;;5046655;28;20057;-64
2022/08/12 05:12:18;;;;;;;17.37;12.67;;;;;;;;;;5046838;28;20064;-64
2022/08/12 05:14:45;;;;;;;18.63;12.90;;;;;;;;;;5046694;28;20088;-64
2022/08/12 05:17:11;;;;;;;19.00;13.57;;;;;;;;;;5050421;28;20418;-64
2022/08/12 05:19:37;;;;;;;23.10;14.80;;;;;;;;;;5049968;28;20037;-65
2022/08/12 05:22:03;;;;;;;19.03;13.27;;;;;;;;;;5050419;28;20060;-64
2022/08/12 05:24:29;;;;;;;21.63;13.00;;;;;;;;;;5050518;28;20049;-64
2022/08/12 05:26:56;;;;;;;23.27;14.13;;;;;;;;;;5049023;28;20089;-64
2022/08/12 05:29:22;;;;;;;16.50;12.03;;;;;;;;;;5050290;28;20097;-65
2022/08/12 05:31:54;;;;;;;16.80;11.83;;;;;;;;;;5050227;28;20506;-64
2022/08/12 05:34:20;;;;;;;18.70;12.17;;;;;;;;;;5050379;28;20402;-64
2022/08/12 05:36:46;;;;;;;15.63;11.50;;;;;;;;;;5049855;28;20095;-64
2022/08/12 05:39:12;;;;;;;18.90;11.47;;;;;;;;;;5050351;28;20053;-64
2022/08/12 05:41:38;;;;;;;19.93;12.53;;;;;;;;;;5049970;28;20056;-64
2022/08/12 05:44:08;;;;;;;13.47;11.27;;;;;;;;;;5049621;28;20060;-64
2022/08/12 05:46:35;;;;;;;17.17;10.93;;;;;;;;;;5050535;28;20043;-64
2022/08/12 05:49:02;;;;;;;14.10;9.40;;;;;;;;;;5049736;28;20048;-65
2022/08/12 05:51:30;;;;;;;17.73;10.50;;;;;;;;;;5050236;28;20045;-64
2022/08/12 05:53:57;;;;;;;15.87;10.03;;;;;;;;;;5049653;28;20037;-64
2022/08/12 05:56:30;;;;;;;13.43;10.10;;;;;;;;;;5048299;28;20091;-65
2022/08/12 05:58:56;;;;;;;;;;;;;;;;;;5049916;28;20075;-65
2022/08/12 06:01:24;;;;;;;16.00;8.93;;;;;;;;;;5049454;28;19956;-64
2022/08/12 06:03:51;;;;;;;12.00;8.90;;;;;;;;;;5050169;28;21044;-64
2022/08/12 06:06:17;;;;;;;10.20;8.53;;;;;;;;;;5049312;28;20055;-64
2022/08/12 06:08:46;;;;;;;8.63;7.23;;;;;;;;;;5049667;28;21507;-64
2022/08/12 06:11:12;;;;;;;11.20;7.60;;;;;;;;;;5049260;28;20055;-64
2022/08/12 06:13:41;;;;;;;10.80;7.13;;;;;;;;;;5048538;28;20040;-64
2022/08/12 06:16:08;;;;;;;11.30;7.10;;;;;;;;;;5049559;28;20045;-65
2022/08/12 06:18:38;;;;;;;12.20;7.27;;;;;;;;;;5049192;28;20656;-65
2022/08/12 06:21:06;;;;;;;8.20;6.33;;;;;;;;;;5048930;28;20051;-64
2022/08/12 06:23:32;;;;;;;11.07;7.57;;;;;;;;;;5049280;28;20514;-65
2022/08/12 06:25:58;;;;;;;13.80;7.17;;;;;;;;;;5049534;28;20462;-65
2022/08/12 06:28:25;;;;;;;8.80;6.40;;;;;;;;;;5048019;28;20041;-65
2022/08/12 06:30:52;;;;;;;7.57;5.73;;;;;;;;;;5049350;28;20041;-65
2022/08/12 06:33:18;;;;;;;12.70;6.50;;;;;;;;;;5048037;28;20087;-65
2022/08/12 06:35:44;;;;;;;11.03;5.93;;;;;;;;;;5048664;28;20428;-65
2022/08/12 06:38:14;;;;;;;10.57;5.90;;;;;;;;;;5048908;28;20324;-67
2022/08/12 06:43:29;;;;;;;9.20;4.97;;;;;;;;;;5049064;28;20559;-65
2022/08/12 06:45:56;;;;;;;10.03;5.50;;;;;;;;;;5048487;28;20045;-65
2022/08/12 06:48:23;;;;;;;9.03;3.97;;;;;;;;;;5048753;28;20351;-65
2022/08/12 06:50:50;;;;;;;9.33;4.87;;;;;;;;;;5048831;28;20087;-64
2022/08/12 06:53:16;;;;;;;7.00;4.53;;;;;;;;;;5048514;28;20045;-64
2022/08/12 06:55:42;;;;;;;6.70;4.33;;;;;;;;;;5047397;28;20574;-65
2022/08/12 06:58:08;;;;;;;9.37;4.23;;;;;;;;;;5048252;28;20068;-65
2022/08/12 07:00:34;;;;;;;6.87;4.47;;;;;;;;;;5048718;28;20091;-64
2022/08/12 07:03:01;;;;;;;6.97;4.53;;;;;;;;;;5049139;28;20053;-65
2022/08/12 07:05:27;;;;;;;8.13;4.13;;;;;;;;;;5047468;28;20520;-64
2022/08/12 07:08:04;;;;;;;7.37;3.90;;;;;;;;;;5048327;28;20494;-65
2022/08/12 07:10:31;;;;;;;9.37;4.87;;;;;;;;;;5048747;28;20495;-65
2022/08/12 07:13:00;;;;;;;9.10;4.53;;;;;;;;;;5048499;28;20059;-65
2022/08/12 07:15:27;;;;;;;8.70;4.07;;;;;;;;;;5047489;28;20053;-64
2022/08/12 07:20:34;;;;;;;7.13;4.33;;;;;;;;;;5044955;28;20060;-65
2022/08/12 07:23:01;;;;;;;10.97;3.70;;;;;;;;;;5048968;28;20063;-65
2022/08/12 07:25:30;;;;;;;6.40;3.77;;;;;;;;;;5048972;28;20048;-65
2022/08/12 07:28:00;;;;;;;8.43;3.47;;;;;;;;;;5048704;28;20072;-65
2022/08/12 07:30:30;;;;;;;10.27;3.80;;;;;;;;;;5048616;28;20049;-65
2022/08/12 07:33:00;;;;;;;5.37;3.40;;;;;;;;;;5048572;28;20497;-65
2022/08/12 07:35:26;;;;;;;10.97;3.63;;;;;;;;;;5048982;28;20076;-65
2022/08/12 07:37:52;;;;;;;6.40;3.60;;;;;;;;;;5046546;28;20415;-65
2022/08/12 07:40:19;;;;;;;6.20;3.47;;;;;;;;;;5047850;28;20059;-64
2022/08/12 07:42:45;;;;;;;8.20;3.47;;;;;;;;;;5048078;28;20040;-64
2022/08/12 07:45:11;;;;;;;7.33;3.23;;;;;;;;;;5048450;28;20649;-65
2022/08/12 07:47:42;;;;;;;7.60;3.23;;;;;;;;;;5048013;28;20178;-64
2022/08/12 07:50:09;;;;;;;6.23;2.93;;;;;;;;;;5046814;28;20053;-64
2022/08/12 07:52:40;;;;;;;7.10;3.07;;;;;;;;;;5048454;28;20075;-64
2022/08/12 07:55:06;;;;;;;7.53;2.80;;;;;;;;;;5048191;28;20052;-64
2022/08/12 07:57:32;;;;;;;8.70;2.80;;;;;;;;;;5048333;28;20080;-64
2022/08/12 08:00:03;;;;;;;6.00;3.27;;;;;;;;;;5048211;28;20033;-65
2022/08/12 08:02:32;;;;;;;6.27;2.97;;;;;;;;;;5047836;28;20072;-65
2022/08/12 08:04:59;;;;;;;8.47;3.10;;;;;;;;;;5048231;28;20045;-64
2022/08/12 08:07:28;;;;;;;5.53;2.23;;;;;;;;;;5048486;28;20049;-65
2022/08/12 08:09:59;;;;;;;8.07;2.43;;;;;;;;;;5044813;28;20091;-65
2022/08/12 08:15:10;;;;;;;5.10;2.67;;;;;;;;;;5047048;28;20049;-65
2022/08/12 08:17:37;;;;;;;5.20;2.60;;;;;;;;;;5046813;28;20041;-65
2022/08/12 08:20:04;;;;;;;6.00;2.47;;;;;;;;;;5047921;28;20400;-65
2022/08/12 08:22:31;;;;;;;8.27;2.50;;;;;;;;;;5047765;28;20417;-65
2022/08/12 08:24:58;;;;;;;5.93;2.77;;;;;;;;;;5048110;28;20132;-65
2022/08/12 08:27:24;;;;;;;8.60;2.43;;;;;;;;;;5038355;28;20041;-65
2022/08/12 08:29:50;;;;;;;7.50;2.37;;;;;;;;;;5047791;28;20098;-65
2022/08/12 08:32:16;;;;;;;6.83;2.33;;;;;;;;;;5047204;28;20526;-65
2022/08/12 08:34:44;;;;;;;7.03;2.27;;;;;;;;;;5047953;28;20044;-65
2022/08/12 08:37:14;;;;;;;6.13;2.50;;;;;;;;;;5047709;28;20529;-65
2022/08/12 08:39:40;;;;;;;6.13;2.00;;;;;;;;;;5046937;28;20063;-65
2022/08/12 08:44:51;;;;;;;4.95;2.03;;;;;;;;;;5047277;28;20041;-65
2022/08/12 08:47:17;;;;;;;7.35;1.88;;;;;;;;;;5047809;28;20041;-65
2022/08/12 08:49:44;;;;;;;5.05;1.90;;;;;;;;;;5047186;28;20049;-65
2022/08/12 08:52:11;;;;;;;6.00;2.38;;;;;;;;;;5050124;28;20056;-65
2022/08/12 08:54:37;;;;;;;8.68;2.00;;;;;;;;;;5051650;28;20040;-65
2022/08/12 08:57:04;;;;;;;3.65;1.83;;;;;;;;;;5051339;28;20503;-65
2022/08/12 08:59:30;;;;;;;4.93;2.00;;;;;;;;;;5051825;28;20041;-65
2022/08/12 09:01:56;;;;;;;6.65;2.00;;;;;;;;;;5051620;28;20978;-65
2022/08/12 09:04:25;;;;;;;4.30;1.90;;;;;;;;;;5051159;28;20131;-65
2022/08/12 09:06:55;;;;;;;4.97;2.00;;;;;;;;;;5051788;28;20546;-65
2022/08/12 09:09:21;;;;;;;5.68;1.98;;;;;;;;;;5051278;28;20053;-65
2022/08/12 09:14:32;;;;;;;4.90;2.03;;;;;;;;;;5051029;28;20127;-65
2022/08/12 09:16:58;;;;;;;2.50;1.80;;;;;;;;;;5051453;28;20140;-65
2022/08/12 09:19:25;;;;;;;2.90;1.63;;;;;;;;;;5051262;28;20524;-65
2022/08/12 09:21:51;;;;;;;5.47;1.70;;;;;;;;;;5050872;28;20128;-65
2022/08/12 09:24:18;;;;;;;4.72;1.60;;;;;;;;;;5051229;28;20102;-65
2022/08/12 09:26:47;;;;;;;6.22;2.20;;;;;;;;;;5050309;28;20045;-65
2022/08/12 09:29:20;;;;;;;4.18;1.75;;;;;;;;;;5050703;28;20042;-66
2022/08/12 09:31:47;;;;;;;3.97;2.10;;;;;;;;;;5043930;28;20107;-66
2022/08/12 09:34:13;;;;;;;4.28;1.80;;;;;;;;;;5050966;28;20144;-65
2022/08/12 09:36:40;;;;;;;4.55;1.75;;;;;;;;;;5049904;28;20049;-65
2022/08/12 09:39:06;;;;;;;6.13;2.05;;;;;;;;;;5050822;28;20048;-65
2022/08/12 09:41:39;;;;;;;6.55;2.42;;;;;;;;;;5050855;28;20049;-66
2022/08/12 09:46:50;;;;;;;5.82;2.03;;;;;;;;;;5050269;28;20049;-65
2022/08/12 09:49:16;;;;;;;6.95;1.85;;;;;;;;;;5050795;28;20044;-66
2022/08/12 09:51:42;;;;;;;5.63;1.98;;;;;;;;;;5050502;28;20471;-65
2022/08/12 09:54:12;;;;;;;5.88;2.00;;;;;;;;;;5050866;28;20053;-65
2022/08/12 09:56:42;;;;;;;4.63;1.90;;;;;;;;;;5048806;28;20540;-66
2022/08/12 09:59:09;;;;;;;9.80;2.03;;;;;;;;;;5050837;28;20068;-65
2022/08/12 10:01:39;;;;;;;6.13;2.00;;;;;;;;;;5049491;28;20083;-65
2022/08/12 10:04:09;;;;;;;6.07;2.00;;;;;;;;;;5050766;28;20045;-66
2022/08/12 10:06:35;;;;;;;3.40;1.70;;;;;;;;;;5050607;28;20100;-65
2022/08/12 10:09:01;;;;;;;5.75;1.80;;;;;;;;;;5049506;28;20423;-66
2022/08/12 10:14:12;;;;;;;6.88;1.90;;;;;;;;;;5050344;28;20049;-66
2022/08/12 10:16:43;;;;;;;8.60;2.45;;;;;;;;;;5050197;28;20052;-66
2022/08/12 10:19:09;;;;;;;4.53;1.80;;;;;;;;;;5050549;28;20124;-66
2022/08/12 10:21:36;;;;;;;4.07;1.70;;;;;;;;;;5049465;28;20092;-66
2022/08/12 10:24:14;;;;;;;5.72;1.73;;;;;;;;;;5050416;28;20909;-65
2022/08/12 10:29:38;;;;;;;5.82;2.17;;;;;;;;;;5050116;28;20041;-66
2022/08/12 10:32:07;;;;;;;6.22;1.60;;;;;;;;;;5049967;28;20087;-66
2022/08/12 10:34:33;;;;;;;4.43;1.90;;;;;;;;;;5050035;28;20041;-66
2022/08/12 10:37:01;;;;;;;4.25;1.73;;;;;;;;;;5049160;28;20045;-66
2022/08/12 10:39:32;;;;;;;6.45;2.22;;;;;;;;;;5049993;28;20418;-66
2022/08/12 10:44:59;;;;;;;6.18;1.40;;;;;;;;;;5049743;28;20706;-65
2022/08/12 10:47:25;;;;;;;4.10;1.73;;;;;;;;;;5049063;28;20053;-66
2022/08/12 10:49:51;;;;;;;4.97;1.95;;;;;;;;;;5049403;28;20049;-66
2022/08/12 10:52:17;;;;;;;6.07;1.70;;;;;;;;;;5049490;28;20049;-66
2022/08/12 10:54:45;;;;;;;8.50;2.13;;;;;;;;;;5049563;28;20092;-65
2022/08/12 10:57:11;;;;;;;6.82;1.60;;;;;;;;;;5048270;28;20041;-65
2022/08/12 10:59:38;;;;;;;6.82;1.52;;;;;;;;;;5045823;28;20471;-65
2022/08/12 11:02:04;;;;;;;5.72;1.40;;;;;;;;;;5048845;28;20049;-65
2022/08/12 11:04:30;;;;;;;5.05;1.55;;;;;;;;;;5049324;28;20049;-65
2022/08/12 11:06:57;;;;;;;3.55;1.30;;;;;;;;;;5049357;28;20151;-65
2022/08/12 11:09:30;;;;;;;4.05;1.48;;;;;;;;;;5048960;28;20060;-65
2022/08/12 11:11:58;;;;;;;4.28;1.70;;;;;;;;;;5048767;28;20474;-65
2022/08/12 11:14:27;;;;;;;2.38;1.45;;;;;;;;;;5048837;28;20052;-65
2022/08/12 11:16:57;;;;;;;3.15;1.58;;;;;;;;;;5049686;28;20037;-65
2022/08/12 11:19:24;;;;;;;5.00;1.48;;;;;;;;;;5048691;28;20076;-65
2022/08/12 11:21:51;;;;;;;4.85;1.60;;;;;;;;;;5049030;28;20079;-65
2022/08/12 11:24:17;;;;;;;3.90;1.23;;;;;;;;;;5048539;28;20048;-65
2022/08/12 11:26:43;;;;;;;4.72;1.70;;;;;;;;;;5048124;28;20075;-65
2022/08/12 11:29:09;;;;;;;2.55;1.30;;;;;;;;;;5048359;28;20041;-65
2022/08/12 11:31:35;;;;;;;4.32;1.60;;;;;;;;;;5048143;28;20454;-65
2022/08/12 11:34:01;;;;;;;4.72;1.58;;;;;;;;;;5047750;28;20040;-65
2022/08/12 11:36:28;;;;;;;4.35;1.45;;;;;;;;;;5048120;28;20072;-65
2022/08/12 11:38:54;;;;;;;2.10;1.20;;;;;;;;;;5047964;28;20045;-65
2022/08/12 11:41:20;;;;;;;3.95;1.27;;;;;;;;;;5048349;28;20049;-65
2022/08/12 11:43:46;;;;;;;3.17;1.50;;;;;;;;;;5046625;28;20072;-65
2022/08/12 11:46:13;;;;;;;5.65;1.60;;;;;;;;;;5047585;28;20076;-65
2022/08/12 11:48:39;;;;;;;6.50;1.95;;;;;;;;;;5048403;28;20083;-66
2022/08/12 11:51:08;;;;;;;3.28;1.52;;;;;;;;;;5047187;28;20045;-65
2022/08/12 11:53:34;;;;;;;8.20;1.98;;;;;;;;;;5046447;28;20477;-65
2022/08/12 11:56:00;;;;;;;6.07;1.88;;;;;;;;;;5047553;28;20045;-65
2022/08/12 11:58:27;;;;;;;3.40;1.38;;;;;;;;;;5047732;28;20471;-65
2022/08/12 12:00:53;;;;;;;6.28;2.10;;;;;;;;;;5047609;28;20434;-66
2022/08/12 12:03:19;;;;;;;4.75;1.50;;;;;;;;;;5048036;28;20122;-66
2022/08/12 12:05:45;;;;;;;3.53;1.58;;;;;;;;;;5048204;28;20048;-66
2022/08/12 12:08:23;;;;;;;4.05;1.60;;;;;;;;;;5047241;28;20411;-66
2022/08/12 12:10:50;;;;;;;4.55;1.30;;;;;;;;;;5048442;28;20053;-66
2022/08/12 12:13:16;;;;;;;4.22;1.55;;;;;;;;;;5045526;28;20099;-66
2022/08/12 12:15:42;;;;;;;5.03;1.65;;;;;;;;;;5047305;28;20128;-65
2022/08/12 12:18:23;;;;;;;3.25;1.25;;;;;;;;;;5043779;28;20091;-66
2022/08/12 12:20:50;;;;;;;3.05;1.40;;;;;;;;;;5045991;28;20578;-65
2022/08/12 12:23:16;;;;;;;6.13;1.20;;;;;;;;;;5046503;28;20052;-65
2022/08/12 12:25:43;;;;;;;6.82;1.58;;;;;;;;;;5037252;28;20140;-65
2022/08/12 12:28:09;;;;;;;3.47;1.40;;;;;;;;;;5037443;28;20114;-65
2022/08/12 12:30:35;;;;;;;5.13;1.45;;;;;;;;;;5046741;28;20041;-65
2022/08/12 12:33:01;;;;;;;3.60;1.60;;;;;;;;;;5045959;28;20049;-65
2022/08/12 12:35:27;;;;;;;4.03;1.63;;;;;;;;;;5047858;28;20045;-65
2022/08/12 12:37:57;;;;;;;7.28;1.92;;;;;;;;;;5043097;28;20062;-65
2022/08/12 12:40:24;;;;;;;2.58;1.55;;;;;;;;;;5043601;28;20049;-65
2022/08/12 12:42:50;;;;;;;3.35;1.55;;;;;;;;;;5045326;28;20048;-65
2022/08/12 12:45:17;;;;;;;4.55;1.38;;;;;;;;;;5047890;28;20037;-65
2022/08/12 12:47:53;;;;;;;3.63;1.30;;;;;;;;;;5047699;28;20076;-65
2022/08/12 12:50:19;;;;;;;5.55;1.50;;;;;;;;;;5044092;28;20593;-65
2022/08/12 12:52:45;;;;;;;3.40;1.38;;;;;;;;;;5047480;28;20051;-65
2022/08/12 12:55:13;;;;;;;4.22;1.58;;;;;;;;;;5047477;28;20045;-65
2022/08/12 12:57:39;;;;;;;2.40;1.40;;;;;;;;;;5046913;28;20045;-65
2022/08/12 13:00:16;;;;;;;3.42;1.48;;;;;;;;;;5047179;28;20135;-65
2022/08/12 13:02:54;;;;;;;7.65;1.45;;;;;;;;;;5047070;28;20037;-66
2022/08/12 13:05:43;;;;;;;3.85;1.38;;;;;;;;;;5046360;28;20103;-66
2022/08/12 13:08:23;;;;;;;4.43;1.40;;;;;;;;;;5047627;28;20087;-66
2022/08/12 13:10:49;;;;;;;6.38;1.42;;;;;;;;;;5048009;28;20056;-66
2022/08/12 13:13:17;;;;;;;4.70;1.77;;;;;;;;;;5046083;28;20041;-66
2022/08/12 13:15:43;;;;;;;4.18;1.45;;;;;;;;;;5046651;28;20455;-66
2022/08/12 13:18:09;;;;;;;4.35;1.63;;;;;;;;;;5047752;28;20045;-66
2022/08/12 13:20:35;;;;;;;5.45;1.60;;;;;;;;;;5047324;28;20128;-66
2022/08/12 13:23:01;;;;;;;3.22;1.65;;;;;;;;;;5046610;28;20037;-66
2022/08/12 13:25:27;;;;;;;5.72;2.25;;;;;;;;;;5047161;28;20033;-66
2022/08/12 13:27:54;;;;;;;5.03;1.55;;;;;;;;;;5045480;28;20041;-66
2022/08/12 13:30:21;;;;;;;5.93;1.60;;;;;;;;;;5047178;28;20126;-66
2022/08/12 13:32:57;;;;;;;2.97;1.50;;;;;;;;;;5047357;28;20456;-66
2022/08/12 13:35:27;;;;;;;4.63;1.73;;;;;;;;;;5047334;28;20041;-66
2022/08/12 13:37:54;;;;;;;2.70;1.50;;;;;;;;;;5050132;28;20131;-66
2022/08/12 13:40:21;;;;;;;4.90;1.52;;;;;;;;;;5050900;28;20530;-66
2022/08/12 13:42:48;;;;;;;5.03;1.90;;;;;;;;;;5049768;28;20044;-66
2022/08/12 13:45:15;;;;;;;4.25;2.00;;;;;;;;;;5050746;28;20045;-66
2022/08/12 13:47:58;;;;;;;4.75;1.65;;;;;;;;;;5050287;28;20429;-66
2022/08/12 13:50:28;;;;;;;6.55;1.85;;;;;;;;;;5050632;28;20055;-66
2022/08/12 13:52:54;;;;;;;11.97;2.23;;;;;;;;;;5050407;28;20045;-66
2022/08/12 13:55:21;;;;;;;2.50;1.45;;;;;;;;;;5049637;28;20048;-66
2022/08/12 13:57:47;;;;;;;3.83;1.75;;;;;;;;;;5051144;28;20041;-66
2022/08/12 14:00:14;;;;;;;5.35;1.60;;;;;;;;;;5046866;28;20049;-66
2022/08/12 14:02:40;;;;;;;3.60;1.73;;;;;;;;;;5049845;28;20041;-66
2022/08/12 14:05:08;;;;;;;4.50;1.83;;;;;;;;;;5049989;28;20095;-66
2022/08/12 14:07:51;;;;;;;3.60;1.67;;;;;;;;;;5049605;28;20368;-66
2022/08/12 14:10:37;;;;;;;7.50;2.33;;;;;;;;;;5049530;28;20092;-66
2022/08/12 14:13:14;;;;;;;5.00;1.80;;;;;;;;;;5049921;28;20502;-66
2022/08/12 14:15:42;;;;;;;4.43;1.70;;;;;;;;;;5050218;28;20638;-66
2022/08/12 14:18:08;;;;;;;3.95;1.88;;;;;;;;;;5049826;28;20049;-66
2022/08/12 14:20:34;;;;;;;4.45;1.73;;;;;;;;;;5050206;28;20045;-66
2022/08/12 14:23:00;;;;;;;4.43;1.95;;;;;;;;;;5050083;28;20135;-66
2022/08/12 14:25:29;;;;;;;5.25;1.70;;;;;;;;;;5049841;28;20510;-66
2022/08/12 14:28:02;;;;;;;5.28;2.15;;;;;;;;;;5049797;28;20036;-66
2022/08/12 14:30:29;;;;;;;4.80;1.98;;;;;;;;;;5049922;28;20041;-66
2022/08/12 14:32:55;;;;;;;3.40;2.10;;;;;;;;;;5049164;28;20037;-66
2022/08/12 14:35:21;;;;;;;5.53;2.00;;;;;;;;;;5050249;28;20475;-66
2022/08/12 14:37:48;;;;;;;5.03;1.88;;;;;;;;;;5048424;28;20099;-66
2022/08/12 14:40:14;;;;;;;6.57;2.22;;;;;;;;;;5049933;28;20585;-66
2022/08/12 14:42:40;;;;;;;2.95;1.88;;;;;;;;;;5049713;28;20088;-66
2022/08/12 14:45:07;;;;;;;5.93;2.13;;;;;;;;;;5049130;28;20052;-66
2022/08/12 14:47:33;;;;;;;7.10;2.28;;;;;;;;;;5049577;28;20052;-66
2022/08/12 14:49:59;;;;;;;5.68;1.98;;;;;;;;;;5049039;28;20041;-66
2022/08/12 14:52:25;;;;;;;3.10;1.75;;;;;;;;;;5049105;28;20075;-66
2022/08/12 14:54:51;;;;;;;2.78;1.85;;;;;;;;;;5049611;28;20419;-66
2022/08/12 14:57:18;;;;;;;4.75;1.70;;;;;;;;;;5049414;28;20041;-66
2022/08/12 15:02:28;;;;;;;9.27;2.25;;;;;;;;;;5049226;28;20057;-66
2022/08/12 15:04:57;;;;;;;4.10;2.03;;;;;;;;;;5049019;28;20119;-66
2022/08/12 15:07:25;;;;;;;3.97;2.10;;;;;;;;;;5049213;28;20056;-66
2022/08/12 15:09:52;;;;;;;4.93;2.10;;;;;;;;;;5049249;28;20186;-66
2022/08/12 15:12:18;;;;;;;5.15;1.70;;;;;;;;;;5049978;28;20060;-66
2022/08/12 15:14:44;;;;;;;7.25;2.00;;;;;;;;;;5049119;28;20048;-66
2022/08/12 15:17:10;;;;;;;3.20;2.10;;;;;;;;;;5047220;28;20056;-66
2022/08/12 15:19:36;;;;;;;3.53;2.17;;;;;;;;;;5048439;28;20081;-66
2022/08/12 15:22:03;;;;;;;2.42;1.75;;;;;;;;;;5046112;28;20478;-66
2022/08/12 15:24:29;;;;;;;4.18;1.67;;;;;;;;;;5048927;28;20136;-66
2022/08/12 15:26:56;;;;;;;3.83;1.52;;;;;;;;;;5047661;28;20558;-66
2022/08/12 15:29:22;;;;;;;7.95;1.73;;;;;;;;;;5045760;28;20040;-66
2022/08/12 15:31:48;;;;;;;6.15;1.80;;;;;;;;;;5047962;28;20487;-66
2022/08/12 15:34:14;;;;;;;2.88;1.65;;;;;;;;;;5047557;28;20044;-66
2022/08/12 15:36:40;;;;;;;5.30;1.90;;;;;;;;;;5048343;28;20040;-66
2022/08/12 15:39:08;;;;;;;4.53;1.70;;;;;;;;;;5047389;28;20572;-66
2022/08/12 15:41:34;;;;;;;4.22;1.85;;;;;;;;;;5048122;28;20040;-66
2022/08/12 15:44:00;;;;;;;4.82;1.70;;;;;;;;;;5048096;28;20453;-66
2022/08/12 15:46:30;;;;;;;7.97;1.60;;;;;;;;;;5048692;28;20037;-66
2022/08/12 15:48:56;;;;;;;7.87;1.80;;;;;;;;;;5047562;28;20116;-66
2022/08/12 15:51:32;;;;;;;4.40;1.60;;;;;;;;;;5048218;28;20072;-66
2022/08/12 15:54:04;;;;;;;1.75;1.20;;;;;;;;;;5045472;28;20096;-66
2022/08/12 15:56:30;;;;;;;2.95;1.50;;;;;;;;;;5047982;28;20056;-66
2022/08/12 15:58:59;;;;;;;5.80;1.52;;;;;;;;;;5046214;28;20044;-66
2022/08/12 16:01:28;;;;;;;6.72;1.60;;;;;;;;;;5040075;28;20041;-66
2022/08/12 16:03:56;;;;;;;2.80;1.90;;;;;;;;;;5048026;28;20120;-66
2022/08/12 16:06:23;;;;;;;6.25;2.03;;;;;;;;;;5047506;28;20467;-65
2022/08/12 16:08:49;;;;;;;5.72;1.73;;;;;;;;;;5045884;28;20063;-66
2022/08/12 16:11:19;;;;;;;2.42;1.50;;;;;;;;;;5045785;28;20048;-66
2022/08/12 16:13:45;;;;;;;2.85;1.60;;;;;;;;;;5045904;28;20037;-66
2022/08/12 16:16:11;;;;;;;2.80;1.95;;;;;;;;;;5046962;28;20045;-66
2022/08/12 16:18:38;;;;;;;8.65;1.55;;;;;;;;;;5043480;28;20258;-66
2022/08/12 16:21:05;;;;;;;3.40;2.13;;;;;;;;;;5046256;28;20041;-66
2022/08/12 16:23:34;;;;;;;3.95;1.67;;;;;;;;;;5046540;28;20462;-66
2022/08/12 16:26:02;;;;;;;2.65;1.50;;;;;;;;;;5045780;28;20071;-66
2022/08/12 16:28:29;;;;;;;4.53;1.60;;;;;;;;;;5047152;28;20217;-66
2022/08/12 16:30:55;;;;;;;3.50;1.70;;;;;;;;;;5046498;28;20137;-66